Time,TemperatureF,DewpointF,PressureIn,WindDirection,WindDirectionDegrees,WindSpeedMPH,WindSpeedGustMPH,Humidity,HourlyPrecipIn,Conditions,Clouds,dailyrainin,SoftwareType,DateUTC
2013-05-20 00:01:00,58.6,57.7,29.64,SE,135,4.0,7.0,97,0.00,,,0.00,Weather View 32 v70,2013-05-20 05:01:00,
2013-05-20 00:06:00,58.7,57.8,29.65,SE,135,4.0,7.0,97,0.00,,,0.00,Weather View 32 v70,2013-05-20 05:06:00,
2013-05-20 00:11:00,58.7,57.6,29.65,ESE,112,4.0,7.0,96,0.00,,,0.00,Weather View 32 v70,2013-05-20 05:11:00,
2013-05-20 00:16:00,58.8,57.7,29.66,SW,225,7.0,7.0,96,0.00,,,0.01,Weather View 32 v70,2013-05-20 05:16:00,
2013-05-20 00:21:00,58.9,58.0,29.70,WNW,292,1.0,13.0,97,0.01,,,0.01,Weather View 32 v70,2013-05-20 05:21:00,
2013-05-20 00:26:00,58.9,58.0,29.68,WSW,247,7.0,13.0,97,0.01,,,0.01,Weather View 32 v70,2013-05-20 05:26:00,
2013-05-20 00:31:00,58.8,57.9,29.70,West,270,3.0,13.0,97,0.01,,,0.01,Weather View 32 v70,2013-05-20 05:31:00,
2013-05-20 00:36:00,58.7,57.6,29.69,West,270,5.0,13.0,96,0.01,,,0.01,Weather View 32 v70,2013-05-20 05:36:00,
2013-05-20 00:41:00,58.6,57.5,29.68,WNW,292,3.0,13.0,96,0.01,,,0.01,Weather View 32 v70,2013-05-20 05:41:00,
2013-05-20 00:46:00,58.6,57.5,29.68,West,270,4.0,13.0,96,0.39,,,0.01,Weather View 32 v70,2013-05-20 05:46:00,
2013-05-20 00:51:00,58.6,57.2,29.69,SSW,202,6.0,13.0,95,0.01,,,0.01,Weather View 32 v70,2013-05-20 05:51:00,
2013-05-20 00:56:00,58.7,57.3,29.70,West,270,3.0,13.0,95,0.01,,,0.01,Weather View 32 v70,2013-05-20 05:56:00,
2013-05-20 01:01:00,58.8,57.1,29.70,SW,225,2.0,13.0,94,0.01,,,0.01,Weather View 32 v70,2013-05-20 06:01:00,
2013-05-20 01:06:00,58.9,56.9,29.70,SW,225,4.0,13.0,93,0.01,,,0.01,Weather View 32 v70,2013-05-20 06:06:00,
2013-05-20 01:11:00,58.9,56.9,29.71,West,270,4.0,13.0,93,0.01,,,0.01,Weather View 32 v70,2013-05-20 06:11:00,
2013-05-20 01:16:00,58.9,56.9,29.70,SSW,202,1.0,13.0,93,0.01,,,0.01,Weather View 32 v70,2013-05-20 06:16:00,
2013-05-20 01:21:00,58.9,56.9,29.70,SSW,202,3.0,11.0,93,0.00,,,0.01,Weather View 32 v70,2013-05-20 06:21:00,
2013-05-20 01:26:00,59.0,57.0,29.70,SW,225,4.0,11.0,93,0.00,,,0.01,Weather View 32 v70,2013-05-20 06:26:00,
2013-05-20 01:31:00,59.1,57.1,29.70,SW,225,2.0,8.0,93,0.00,,,0.01,Weather View 32 v70,2013-05-20 06:31:00,
2013-05-20 01:36:00,59.2,56.9,29.70,SW,225,2.0,8.0,92,0.00,,,0.01,Weather View 32 v70,2013-05-20 06:36:00,
2013-05-20 01:41:00,0.0,-78.6,1.40,North,0,0.0,8.0,1,0.00,,,0.00,Weather View 32 v70,2013-05-20 06:41:00,
2013-05-20 01:46:00,59.3,57.0,29.70,WSW,247,2.0,8.0,92,0.00,,,0.01,Weather View 32 v70,2013-05-20 06:46:00,
2013-05-20 01:51:00,0.0,-78.6,1.40,North,0,0.0,8.0,1,-0.01,,,0.00,Weather View 32 v70,2013-05-20 06:51:00,
2013-05-20 01:56:00,59.1,56.8,29.70,SW,225,0.0,7.0,92,-0.01,,,0.01,Weather View 32 v70,2013-05-20 06:56:00,
2013-05-20 02:01:00,0.0,-78.6,1.40,North,0,0.0,7.0,1,0.00,,,0.00,Weather View 32 v70,2013-05-20 07:01:00,
2013-05-20 02:06:00,58.9,56.9,29.70,SW,225,0.0,7.0,93,0.00,,,0.01,Weather View 32 v70,2013-05-20 07:06:00,
2013-05-20 02:11:00,58.9,56.9,29.69,SW,225,1.0,7.0,93,0.00,,,0.01,Weather View 32 v70,2013-05-20 07:11:00,
2013-05-20 02:16:00,58.8,56.5,29.69,East,90,2.0,7.0,92,0.00,,,0.01,Weather View 32 v70,2013-05-20 07:16:00,
2013-05-20 02:21:00,58.8,56.8,29.69,East,90,2.0,6.0,93,0.00,,,0.01,Weather View 32 v70,2013-05-20 07:21:00,
2013-05-20 02:27:00,58.7,57.0,29.70,East,90,1.0,5.0,94,0.00,,,0.01,Weather View 32 v70,2013-05-20 07:27:00,
2013-05-20 02:32:00,58.7,57.0,29.70,East,90,0.0,5.0,94,0.00,,,0.01,Weather View 32 v70,2013-05-20 07:32:00,
2013-05-20 02:37:00,58.5,57.1,29.70,East,90,0.0,3.0,95,0.00,,,0.01,Weather View 32 v70,2013-05-20 07:37:00,
2013-05-20 02:42:00,58.3,57.2,29.70,East,90,2.0,2.0,96,0.01,,,0.01,Weather View 32 v70,2013-05-20 07:42:00,
2013-05-20 02:47:00,58.2,56.8,29.70,East,90,1.0,2.0,95,0.00,,,0.01,Weather View 32 v70,2013-05-20 07:47:00,
2013-05-20 02:52:00,57.9,56.2,29.70,East,90,1.0,2.0,94,0.01,,,0.01,Weather View 32 v70,2013-05-20 07:52:00,
2013-05-20 02:57:00,57.8,56.4,29.69,East,90,1.0,2.0,95,0.00,,,0.01,Weather View 32 v70,2013-05-20 07:57:00,
2013-05-20 03:02:00,57.7,56.3,29.68,East,90,0.0,2.0,95,0.01,,,0.01,Weather View 32 v70,2013-05-20 08:02:00,
2013-05-20 03:07:00,57.6,56.5,29.68,East,90,1.0,2.0,96,0.00,,,0.01,Weather View 32 v70,2013-05-20 08:07:00,
2013-05-20 03:12:00,57.5,56.4,29.68,East,90,1.0,2.0,96,0.00,,,0.01,Weather View 32 v70,2013-05-20 08:12:00,
2013-05-20 03:17:00,57.3,56.5,29.68,East,90,1.0,2.0,97,0.00,,,0.01,Weather View 32 v70,2013-05-20 08:17:00,
2013-05-20 03:22:00,57.0,56.2,29.67,East,90,0.0,2.0,97,0.00,,,0.01,Weather View 32 v70,2013-05-20 08:22:00,
2013-05-20 03:27:00,56.8,56.0,29.67,East,90,2.0,2.0,97,0.00,,,0.01,Weather View 32 v70,2013-05-20 08:27:00,
2013-05-20 03:32:00,56.9,56.1,29.67,ESE,112,2.0,3.0,97,0.00,,,0.01,Weather View 32 v70,2013-05-20 08:32:00,
2013-05-20 03:37:00,56.9,56.1,29.67,ESE,112,2.0,4.0,97,0.00,,,0.01,Weather View 32 v70,2013-05-20 08:37:00,
2013-05-20 03:42:00,56.9,56.1,29.67,ESE,112,3.0,4.0,97,0.00,,,0.01,Weather View 32 v70,2013-05-20 08:42:00,
2013-05-20 03:47:00,57.1,56.3,29.67,ESE,112,2.0,4.0,97,0.00,,,0.01,Weather View 32 v70,2013-05-20 08:47:00,
2013-05-20 03:52:00,57.2,56.4,29.67,ESE,112,2.0,4.0,97,0.00,,,0.01,Weather View 32 v70,2013-05-20 08:52:00,
2013-05-20 03:57:00,57.3,56.5,29.68,SE,135,2.0,4.0,97,0.00,,,0.01,Weather View 32 v70,2013-05-20 08:57:00,
2013-05-20 04:02:00,57.3,56.5,29.68,ESE,112,2.0,4.0,97,0.00,,,0.01,Weather View 32 v70,2013-05-20 09:02:00,
2013-05-20 04:07:00,57.5,56.7,29.68,ESE,112,3.0,5.0,97,0.00,,,0.01,Weather View 32 v70,2013-05-20 09:07:00,
2013-05-20 04:12:00,57.7,56.9,29.68,ESE,112,1.0,5.0,97,0.00,,,0.01,Weather View 32 v70,2013-05-20 09:12:00,
2013-05-20 04:17:00,57.8,57.0,29.68,SE,135,2.0,5.0,97,0.00,,,0.01,Weather View 32 v70,2013-05-20 09:17:00,
2013-05-20 04:22:00,57.8,57.0,29.68,ESE,112,2.0,5.0,97,0.00,,,0.01,Weather View 32 v70,2013-05-20 09:22:00,
2013-05-20 04:27:00,57.9,56.8,29.68,SE,135,3.0,5.0,96,0.00,,,0.01,Weather View 32 v70,2013-05-20 09:27:00,
2013-05-20 04:32:00,58.1,57.2,29.68,ESE,112,2.0,6.0,97,0.00,,,0.01,Weather View 32 v70,2013-05-20 09:32:00,
2013-05-20 04:37:00,58.3,57.2,29.68,ESE,112,2.0,6.0,96,0.00,,,0.01,Weather View 32 v70,2013-05-20 09:37:00,
2013-05-20 04:42:00,58.3,57.2,29.68,SE,135,2.0,6.0,96,0.00,,,0.01,Weather View 32 v70,2013-05-20 09:42:00,
2013-05-20 04:47:00,58.4,57.3,29.68,SE,135,2.0,6.0,96,0.00,,,0.01,Weather View 32 v70,2013-05-20 09:47:00,
2013-05-20 04:52:00,58.4,57.3,29.68,ESE,112,1.0,6.0,96,0.00,,,0.01,Weather View 32 v70,2013-05-20 09:52:00,
2013-05-20 04:57:00,58.4,57.3,29.68,ESE,112,0.0,6.0,96,0.00,,,0.01,Weather View 32 v70,2013-05-20 09:57:00,
2013-05-20 05:02:00,58.3,57.2,29.68,SE,135,0.0,6.0,96,0.00,,,0.01,Weather View 32 v70,2013-05-20 10:02:00,
2013-05-20 05:07:00,58.4,57.3,29.68,SSW,202,4.0,6.0,96,0.00,,,0.01,Weather View 32 v70,2013-05-20 10:07:00,
2013-05-20 05:12:00,58.4,57.3,29.68,SW,225,3.0,6.0,96,0.00,,,0.01,Weather View 32 v70,2013-05-20 10:12:00,
2013-05-20 05:17:00,58.4,57.3,29.67,SW,225,2.0,6.0,96,0.00,,,0.01,Weather View 32 v70,2013-05-20 10:17:00,
2013-05-20 05:22:00,58.3,57.2,29.68,SW,225,2.0,6.0,96,0.00,,,0.01,Weather View 32 v70,2013-05-20 10:22:00,
2013-05-20 05:27:00,58.3,57.4,29.68,SW,225,1.0,6.0,97,0.00,,,0.01,Weather View 32 v70,2013-05-20 10:27:00,
2013-05-20 05:32:00,58.2,57.3,29.68,SW,225,2.0,5.0,97,0.00,,,0.01,Weather View 32 v70,2013-05-20 10:32:00,
2013-05-20 05:37:00,58.1,57.0,29.68,SE,135,2.0,4.0,96,0.00,,,0.01,Weather View 32 v70,2013-05-20 10:37:00,
2013-05-20 05:42:00,58.1,57.0,29.68,South,180,1.0,4.0,96,0.00,,,0.01,Weather View 32 v70,2013-05-20 10:42:00,
2013-05-20 05:47:00,58.1,57.2,29.68,South,180,0.0,4.0,97,0.00,,,0.01,Weather View 32 v70,2013-05-20 10:47:00,
2013-05-20 05:52:00,58.1,57.2,29.69,SE,135,1.0,4.0,97,0.00,,,0.01,Weather View 32 v70,2013-05-20 10:52:00,
2013-05-20 05:57:00,58.1,57.0,29.69,SE,135,0.0,4.0,96,0.00,,,0.01,Weather View 32 v70,2013-05-20 10:57:00,
2013-05-20 06:02:00,58.2,57.3,29.69,NW,315,1.0,4.0,97,0.00,,,0.01,Weather View 32 v70,2013-05-20 11:02:00,
2013-05-20 06:07:00,58.3,57.2,29.69,WNW,292,2.0,6.0,96,0.00,,,0.01,Weather View 32 v70,2013-05-20 11:07:00,
2013-05-20 06:12:00,58.3,57.2,29.70,NW,315,2.0,6.0,96,0.00,,,0.01,Weather View 32 v70,2013-05-20 11:12:00,
2013-05-20 06:17:00,58.2,57.1,29.70,NW,315,1.0,6.0,96,0.00,,,0.01,Weather View 32 v70,2013-05-20 11:17:00,
2013-05-20 06:22:00,58.1,57.0,29.70,WNW,292,2.0,6.0,96,0.00,,,0.01,Weather View 32 v70,2013-05-20 11:22:00,
2013-05-20 06:27:00,58.1,56.7,29.70,West,270,3.0,6.0,95,0.00,,,0.01,Weather View 32 v70,2013-05-20 11:27:00,
2013-05-20 06:32:00,58.3,57.2,29.70,West,270,2.0,6.0,96,0.00,,,0.01,Weather View 32 v70,2013-05-20 11:32:00,
2013-05-20 06:37:00,58.2,57.1,29.70,NW,315,2.0,6.0,96,0.00,,,0.01,Weather View 32 v70,2013-05-20 11:37:00,
2013-05-20 06:42:00,58.2,57.1,29.70,West,270,1.0,6.0,96,0.00,,,0.01,Weather View 32 v70,2013-05-20 11:42:00,
2013-05-20 06:47:00,58.1,57.0,29.70,West,270,2.0,6.0,96,0.00,,,0.01,Weather View 32 v70,2013-05-20 11:47:00,
2013-05-20 06:52:00,57.9,56.8,29.70,West,270,1.0,6.0,96,0.00,,,0.01,Weather View 32 v70,2013-05-20 11:52:00,
2013-05-20 06:57:00,58.1,57.5,29.70,West,270,4.0,6.0,98,0.00,,,0.01,Weather View 32 v70,2013-05-20 11:57:00,
2013-05-20 07:02:00,57.9,56.8,29.70,West,270,2.0,6.0,96,0.00,,,0.01,Weather View 32 v70,2013-05-20 12:02:00,
2013-05-20 07:07:00,57.9,56.8,29.71,West,270,2.0,5.0,96,0.00,,,0.01,Weather View 32 v70,2013-05-20 12:07:00,
2013-05-20 07:12:00,57.9,56.8,29.71,West,270,3.0,5.0,96,0.00,,,0.01,Weather View 32 v70,2013-05-20 12:12:00,
2013-05-20 07:17:00,57.9,57.1,29.71,West,270,3.0,5.0,97,0.00,,,0.01,Weather View 32 v70,2013-05-20 12:17:00,
2013-05-20 07:22:00,57.9,57.1,29.71,SW,225,4.0,5.0,97,0.00,,,0.01,Weather View 32 v70,2013-05-20 12:22:00,
2013-05-20 07:27:00,57.9,56.8,29.72,West,270,2.0,7.0,96,0.00,,,0.01,Weather View 32 v70,2013-05-20 12:27:00,
2013-05-20 07:32:00,57.9,56.8,29.72,WSW,247,2.0,7.0,96,0.00,,,0.01,Weather View 32 v70,2013-05-20 12:32:00,
2013-05-20 07:37:00,57.9,56.5,29.72,SW,225,2.0,7.0,95,0.00,,,0.01,Weather View 32 v70,2013-05-20 12:37:00,
2013-05-20 07:42:00,57.9,56.5,29.72,SW,225,1.0,7.0,95,0.00,,,0.01,Weather View 32 v70,2013-05-20 12:42:00,
2013-05-20 07:47:00,57.9,56.5,29.72,SW,225,2.0,7.0,95,0.00,,,0.01,Weather View 32 v70,2013-05-20 12:47:00,
2013-05-20 07:52:00,57.9,56.2,29.72,SW,225,3.0,7.0,94,0.29,,,0.01,Weather View 32 v70,2013-05-20 12:52:00,
2013-05-20 07:57:00,57.9,56.2,29.73,SW,225,2.0,8.0,94,0.29,,,0.01,Weather View 32 v70,2013-05-20 12:57:00,
2013-05-20 08:03:00,57.9,56.2,29.73,SSW,202,2.0,9.0,94,0.00,,,0.01,Weather View 32 v70,2013-05-20 13:03:00,
2013-05-20 08:08:00,57.7,56.0,29.73,SW,225,3.0,10.0,94,0.01,,,0.02,Weather View 32 v70,2013-05-20 13:08:00,
2013-05-20 08:13:00,57.6,55.9,29.74,WSW,247,2.0,10.0,94,0.01,,,0.02,Weather View 32 v70,2013-05-20 13:13:00,
2013-05-20 08:18:00,57.6,56.2,29.74,West,270,2.0,10.0,95,0.01,,,0.02,Weather View 32 v70,2013-05-20 13:18:00,
2013-05-20 08:23:00,57.6,55.9,29.73,NW,315,2.0,10.0,94,0.01,,,0.02,Weather View 32 v70,2013-05-20 13:23:00,
2013-05-20 08:28:00,57.7,56.0,29.74,SW,225,2.0,10.0,94,0.01,,,0.02,Weather View 32 v70,2013-05-20 13:28:00,
2013-05-20 08:33:00,57.8,55.8,29.74,SW,225,4.0,10.0,93,0.01,,,0.02,Weather View 32 v70,2013-05-20 13:33:00,
2013-05-20 08:38:00,58.0,56.3,29.74,SW,225,2.0,10.0,94,0.01,,,0.02,Weather View 32 v70,2013-05-20 13:38:00,
2013-05-20 08:43:00,58.2,56.2,29.74,SSW,202,3.0,10.0,93,0.01,,,0.02,Weather View 32 v70,2013-05-20 13:43:00,
2013-05-20 08:48:00,58.5,56.2,29.74,SW,225,4.0,10.0,92,0.01,,,0.02,Weather View 32 v70,2013-05-20 13:48:00,
2013-05-20 08:53:00,58.9,56.3,29.74,SW,225,6.0,10.0,91,0.01,,,0.02,Weather View 32 v70,2013-05-20 13:53:00,
2013-05-20 08:58:00,59.1,56.2,29.74,SW,225,7.0,11.0,90,0.01,,,0.02,Weather View 32 v70,2013-05-20 13:58:00,
2013-05-20 09:03:00,59.6,56.0,29.74,SW,225,7.0,11.0,88,0.01,,,0.02,Weather View 32 v70,2013-05-20 14:03:00,
2013-05-20 09:08:00,60.1,56.2,29.74,West,270,4.0,11.0,87,0.00,,,0.02,Weather View 32 v70,2013-05-20 14:08:00,
2013-05-20 09:13:00,60.6,56.4,29.74,SW,225,9.0,14.0,86,0.00,,,0.02,Weather View 32 v70,2013-05-20 14:13:00,
2013-05-20 09:18:00,60.9,56.7,29.75,SW,225,11.0,14.0,86,0.00,,,0.02,Weather View 32 v70,2013-05-20 14:18:00,
2013-05-20 09:23:00,61.1,55.9,29.75,SW,225,8.0,16.0,83,0.00,,,0.02,Weather View 32 v70,2013-05-20 14:23:00,
2013-05-20 09:28:00,61.3,56.1,29.75,SW,225,8.0,16.0,83,0.00,,,0.02,Weather View 32 v70,2013-05-20 14:28:00,
2013-05-20 09:33:00,61.4,56.2,29.75,WSW,247,12.0,16.0,83,0.00,,,0.02,Weather View 32 v70,2013-05-20 14:33:00,
2013-05-20 09:38:00,61.7,55.8,29.75,West,270,6.0,16.0,81,0.00,,,0.02,Weather View 32 v70,2013-05-20 14:38:00,
2013-05-20 09:43:00,61.8,56.6,29.75,SW,225,4.0,16.0,83,0.00,,,0.02,Weather View 32 v70,2013-05-20 14:43:00,
2013-05-20 09:48:00,61.9,56.0,29.74,West,270,6.0,16.0,81,0.00,,,0.02,Weather View 32 v70,2013-05-20 14:48:00,
2013-05-20 09:53:00,62.2,56.6,29.74,SW,225,4.0,16.0,82,0.00,,,0.02,Weather View 32 v70,2013-05-20 14:53:00,
2013-05-20 09:58:00,62.7,55.7,29.74,SW,225,7.0,16.0,78,0.00,,,0.02,Weather View 32 v70,2013-05-20 14:58:00,
2013-05-20 10:03:00,62.9,55.9,29.74,SW,225,7.0,16.0,78,0.00,,,0.02,Weather View 32 v70,2013-05-20 15:03:00,
2013-05-20 10:08:00,63.3,55.9,29.75,West,270,6.0,16.0,77,0.00,,,0.02,Weather View 32 v70,2013-05-20 15:08:00,
2013-05-20 10:13:00,63.6,55.5,29.75,WSW,247,5.0,16.0,75,0.00,,,0.02,Weather View 32 v70,2013-05-20 15:13:00,
2013-05-20 10:18:00,63.5,55.0,29.75,West,270,5.0,16.0,74,0.00,,,0.02,Weather View 32 v70,2013-05-20 15:18:00,
2013-05-20 10:23:00,63.1,55.0,29.75,WNW,292,6.0,17.0,75,0.00,,,0.02,Weather View 32 v70,2013-05-20 15:23:00,
2013-05-20 10:28:00,63.4,55.3,29.75,SW,225,11.0,17.0,75,0.00,,,0.02,Weather View 32 v70,2013-05-20 15:28:00,
2013-05-20 10:34:00,63.5,55.0,29.75,SW,225,12.0,17.0,74,0.28,,,0.02,Weather View 32 v70,2013-05-20 15:34:00,
2013-05-20 10:39:00,63.8,56.1,29.75,SW,225,6.0,17.0,76,0.00,,,0.02,Weather View 32 v70,2013-05-20 15:39:00,
2013-05-20 10:44:00,63.9,54.7,29.75,West,270,9.0,17.0,72,0.00,,,0.02,Weather View 32 v70,2013-05-20 15:44:00,
2013-05-20 10:49:00,63.9,55.1,29.75,West,270,6.0,17.0,73,0.00,,,0.02,Weather View 32 v70,2013-05-20 15:49:00,
2013-05-20 10:54:00,63.6,55.1,29.75,SSW,202,6.0,17.0,74,0.00,,,0.02,Weather View 32 v70,2013-05-20 15:54:00,
2013-05-20 10:59:00,63.5,55.4,29.75,SSW,202,12.0,17.0,75,0.00,,,0.02,Weather View 32 v70,2013-05-20 15:59:00,
2013-05-20 11:04:00,63.7,55.6,29.75,South,180,6.0,19.0,75,0.00,,,0.02,Weather View 32 v70,2013-05-20 16:04:00,
2013-05-20 11:09:00,63.9,55.1,29.76,SW,225,10.0,19.0,73,0.00,,,0.02,Weather View 32 v70,2013-05-20 16:09:00,
2013-05-20 11:14:00,63.9,55.8,29.76,West,270,4.0,22.0,75,0.00,,,0.02,Weather View 32 v70,2013-05-20 16:14:00,
2013-05-20 11:19:00,63.9,55.4,29.76,SW,225,6.0,22.0,74,0.00,,,0.02,Weather View 32 v70,2013-05-20 16:19:00,
2013-05-20 11:24:00,64.0,55.1,29.76,SW,225,12.0,22.0,73,0.00,,,0.02,Weather View 32 v70,2013-05-20 16:24:00,
2013-05-20 11:29:00,64.1,54.9,29.76,SW,225,4.0,22.0,72,0.00,,,0.02,Weather View 32 v70,2013-05-20 16:29:00,
2013-05-20 11:34:00,64.4,55.5,29.76,SW,225,7.0,22.0,73,0.00,,,0.02,Weather View 32 v70,2013-05-20 16:34:00,
2013-05-20 11:39:00,64.6,55.7,29.76,SW,225,3.0,22.0,73,0.00,,,0.02,Weather View 32 v70,2013-05-20 16:39:00,
2013-05-20 11:44:00,64.7,54.7,29.76,SW,225,7.0,22.0,70,0.00,,,0.02,Weather View 32 v70,2013-05-20 16:44:00,
2013-05-20 11:49:00,65.5,54.6,29.76,SW,225,9.0,22.0,68,0.00,,,0.02,Weather View 32 v70,2013-05-20 16:49:00,
2013-05-20 11:54:00,65.9,54.2,29.76,WSW,247,4.0,22.0,66,0.00,,,0.02,Weather View 32 v70,2013-05-20 16:54:00,
2013-05-20 11:59:00,65.9,54.2,29.76,SSW,202,10.0,22.0,66,0.00,,,0.02,Weather View 32 v70,2013-05-20 16:59:00,
2013-05-20 12:04:00,65.9,54.6,29.76,WSW,247,7.0,22.0,67,0.00,,,0.02,Weather View 32 v70,2013-05-20 17:04:00,
2013-05-20 12:09:00,65.9,55.0,29.76,SW,225,3.0,22.0,68,0.00,,,0.02,Weather View 32 v70,2013-05-20 17:09:00,
2013-05-20 12:14:00,66.3,55.0,29.76,SW,225,4.0,21.0,67,0.00,,,0.02,Weather View 32 v70,2013-05-20 17:14:00,
2013-05-20 12:19:00,66.6,56.1,29.76,SW,225,7.0,21.0,69,0.00,,,0.02,Weather View 32 v70,2013-05-20 17:19:00,
2013-05-20 12:24:00,67.1,54.0,29.76,SW,225,11.0,21.0,63,0.00,,,0.02,Weather View 32 v70,2013-05-20 17:24:00,
2013-05-20 12:29:00,67.3,53.8,29.76,SW,225,7.0,21.0,62,0.00,,,0.02,Weather View 32 v70,2013-05-20 17:29:00,
2013-05-20 12:34:00,67.4,54.3,29.76,SW,225,15.0,21.0,63,0.00,,,0.02,Weather View 32 v70,2013-05-20 17:34:00,
2013-05-20 12:39:00,67.7,54.6,29.76,SSW,202,7.0,21.0,63,0.00,,,0.02,Weather View 32 v70,2013-05-20 17:39:00,
2013-05-20 12:44:00,67.5,53.5,29.76,SSW,202,11.0,21.0,61,0.00,,,0.02,Weather View 32 v70,2013-05-20 17:44:00,
2013-05-20 12:49:00,67.6,53.2,29.76,WSW,247,6.0,21.0,60,0.00,,,0.02,Weather View 32 v70,2013-05-20 17:49:00,
2013-05-20 12:54:00,67.9,52.1,29.76,West,270,5.0,21.0,57,0.00,,,0.02,Weather View 32 v70,2013-05-20 17:54:00,
2013-05-20 12:59:00,67.4,52.5,29.77,SW,225,9.0,21.0,59,0.00,,,0.02,Weather View 32 v70,2013-05-20 17:59:00,
2013-05-20 13:04:00,67.3,52.9,29.76,WSW,247,7.0,17.0,60,0.00,,,0.02,Weather View 32 v70,2013-05-20 18:04:00,
2013-05-20 13:09:00,67.0,52.6,29.76,SW,225,6.0,17.0,60,0.00,,,0.02,Weather View 32 v70,2013-05-20 18:09:00,
2013-05-20 13:14:00,66.7,52.3,29.77,South,180,12.0,16.0,60,0.00,,,0.02,Weather View 32 v70,2013-05-20 18:14:00,
2013-05-20 13:19:00,66.7,53.7,29.76,South,180,6.0,16.0,63,0.00,,,0.02,Weather View 32 v70,2013-05-20 18:19:00,
2013-05-20 13:24:00,66.9,53.0,29.76,South,180,5.0,16.0,61,0.00,,,0.02,Weather View 32 v70,2013-05-20 18:24:00,
2013-05-20 13:29:00,67.2,53.7,29.76,SSW,202,4.0,16.0,62,0.00,,,0.02,Weather View 32 v70,2013-05-20 18:29:00,
2013-05-20 13:34:00,67.7,54.2,29.76,SSW,202,2.0,15.0,62,0.00,,,0.02,Weather View 32 v70,2013-05-20 18:34:00,
2013-05-20 13:39:00,67.8,53.8,29.76,South,180,2.0,15.0,61,0.00,,,0.02,Weather View 32 v70,2013-05-20 18:39:00,
2013-05-20 13:44:00,68.0,53.6,29.76,SW,225,4.0,15.0,60,0.00,,,0.02,Weather View 32 v70,2013-05-20 18:44:00,
2013-05-20 13:50:00,68.0,52.6,29.76,South,180,12.0,15.0,58,0.00,,,0.02,Weather View 32 v70,2013-05-20 18:50:00,
2013-05-20 13:55:00,68.1,53.2,29.76,SSW,202,7.0,15.0,59,0.00,,,0.02,Weather View 32 v70,2013-05-20 18:55:00,
2013-05-20 14:00:00,68.1,52.2,29.76,SW,225,12.0,18.0,57,0.00,,,0.02,Weather View 32 v70,2013-05-20 19:00:00,
2013-05-20 14:04:00,68.4,53.5,29.76,SSW,202,2.0,18.0,59,0.00,,,0.02,Weather View 32 v70,2013-05-20 19:04:00,
2013-05-20 14:10:00,68.4,53.5,29.76,South,180,6.0,18.0,59,0.00,,,0.02,Weather View 32 v70,2013-05-20 19:10:00,
2013-05-20 14:15:00,68.3,53.4,29.76,SSW,202,4.0,18.0,59,0.00,,,0.02,Weather View 32 v70,2013-05-20 19:15:00,
2013-05-20 14:20:00,68.9,54.9,29.76,SW,225,9.0,18.0,61,0.00,,,0.02,Weather View 32 v70,2013-05-20 19:20:00,
2013-05-20 14:25:00,69.2,55.1,29.75,SW,225,7.0,18.0,61,0.00,,,0.02,Weather View 32 v70,2013-05-20 19:25:00,
2013-05-20 14:30:00,68.7,53.3,29.75,South,180,5.0,18.0,58,0.00,,,0.02,Weather View 32 v70,2013-05-20 19:30:00,
2013-05-20 14:35:00,68.3,53.4,29.75,SW,225,4.0,18.0,59,0.00,,,0.02,Weather View 32 v70,2013-05-20 19:35:00,
2013-05-20 14:40:00,67.9,54.8,29.75,SW,225,1.0,18.0,63,0.00,,,0.02,Weather View 32 v70,2013-05-20 19:40:00,
2013-05-20 14:45:00,67.6,55.0,29.75,South,180,7.0,18.0,64,0.00,,,0.02,Weather View 32 v70,2013-05-20 19:45:00,
2013-05-20 14:50:00,67.3,54.7,29.75,South,180,1.0,18.0,64,0.00,,,0.02,Weather View 32 v70,2013-05-20 19:50:00,
2013-05-20 14:55:00,67.3,54.2,29.75,SSW,202,6.0,18.0,63,0.00,,,0.02,Weather View 32 v70,2013-05-20 19:55:00,
2013-05-20 15:00:00,67.3,55.1,29.74,SW,225,2.0,18.0,65,0.00,,,0.02,Weather View 32 v70,2013-05-20 20:00:00,
2013-05-20 15:05:00,67.4,55.2,29.75,South,180,10.0,18.0,65,0.00,,,0.02,Weather View 32 v70,2013-05-20 20:05:00,
2013-05-20 15:10:00,67.6,55.8,29.75,SSW,202,5.0,18.0,66,0.00,,,0.02,Weather View 32 v70,2013-05-20 20:10:00,
2013-05-20 15:15:00,67.9,55.7,29.74,South,180,6.0,18.0,65,0.00,,,0.02,Weather View 32 v70,2013-05-20 20:15:00,
2013-05-20 15:20:00,68.1,55.0,29.74,SSW,202,3.0,18.0,63,0.00,,,0.02,Weather View 32 v70,2013-05-20 20:20:00,
2013-05-20 15:25:00,68.4,55.3,29.74,SW,225,6.0,18.0,63,0.00,,,0.02,Weather View 32 v70,2013-05-20 20:25:00,
2013-05-20 15:30:00,68.5,55.4,29.74,SSW,202,6.0,18.0,63,0.00,,,0.02,Weather View 32 v70,2013-05-20 20:30:00,
2013-05-20 15:35:00,68.4,55.3,29.74,SSW,202,7.0,13.0,63,0.00,,,0.02,Weather View 32 v70,2013-05-20 20:35:00,
2013-05-20 15:40:00,67.7,56.3,29.74,SSW,202,6.0,13.0,67,0.00,,,0.02,Weather View 32 v70,2013-05-20 20:40:00,
2013-05-20 15:45:00,66.5,57.6,29.73,SE,135,2.0,13.0,73,0.01,,,0.03,Weather View 32 v70,2013-05-20 20:45:00,
2013-05-20 15:50:00,65.9,57.7,29.73,SSW,202,3.0,13.0,75,0.01,,,0.03,Weather View 32 v70,2013-05-20 20:50:00,
2013-05-20 15:55:00,65.9,57.7,29.73,SW,225,6.0,13.0,75,0.02,,,0.04,Weather View 32 v70,2013-05-20 20:55:00,
2013-05-20 16:00:00,65.4,58.0,29.73,SW,225,1.0,13.0,77,0.02,,,0.04,Weather View 32 v70,2013-05-20 21:00:00,
2013-05-20 16:05:00,65.3,58.2,29.73,South,180,0.0,13.0,78,0.02,,,0.04,Weather View 32 v70,2013-05-20 21:05:00,
2013-05-20 16:10:00,65.5,58.4,29.72,SW,225,2.0,13.0,78,0.02,,,0.04,Weather View 32 v70,2013-05-20 21:10:00,
2013-05-20 16:15:00,66.7,58.1,29.72,SSW,202,2.0,13.0,74,0.02,,,0.04,Weather View 32 v70,2013-05-20 21:15:00,
2013-05-20 16:20:00,67.4,58.4,29.72,SSW,202,5.0,13.0,73,0.02,,,0.04,Weather View 32 v70,2013-05-20 21:20:00,
2013-05-20 16:25:00,67.9,58.1,29.72,SSW,202,6.0,13.0,71,0.02,,,0.04,Weather View 32 v70,2013-05-20 21:25:00,
2013-05-20 16:30:00,68.4,58.2,29.72,South,180,2.0,13.0,70,0.02,,,0.04,Weather View 32 v70,2013-05-20 21:30:00,
2013-05-20 16:35:00,68.6,58.4,29.72,South,180,3.0,13.0,70,0.02,,,0.04,Weather View 32 v70,2013-05-20 21:35:00,
2013-05-20 16:40:00,68.8,58.2,29.72,SSW,202,4.0,12.0,69,0.02,,,0.04,Weather View 32 v70,2013-05-20 21:40:00,
2013-05-20 16:45:00,69.1,55.9,29.72,SW,225,7.0,19.0,63,0.01,,,0.04,Weather View 32 v70,2013-05-20 21:45:00,
2013-05-20 16:50:00,69.1,55.5,29.72,SW,225,4.0,19.0,62,0.01,,,0.04,Weather View 32 v70,2013-05-20 21:50:00,
2013-05-20 16:55:00,69.1,55.9,29.72,West,270,9.0,19.0,63,0.00,,,0.04,Weather View 32 v70,2013-05-20 21:55:00,
2013-05-20 17:00:00,69.1,55.0,29.72,SSW,202,3.0,19.0,61,0.00,,,0.04,Weather View 32 v70,2013-05-20 22:00:00,
2013-05-20 17:05:00,69.2,55.1,29.72,NW,315,6.0,19.0,61,0.00,,,0.04,Weather View 32 v70,2013-05-20 22:05:00,
2013-05-20 17:10:00,69.2,55.1,29.72,WSW,247,6.0,19.0,61,0.00,,,0.04,Weather View 32 v70,2013-05-20 22:10:00,
2013-05-20 17:15:00,69.3,54.3,29.72,South,180,1.0,19.0,59,0.00,,,0.04,Weather View 32 v70,2013-05-20 22:15:00,
2013-05-20 17:20:00,69.3,54.3,29.72,SW,225,2.0,19.0,59,0.00,,,0.04,Weather View 32 v70,2013-05-20 22:20:00,
2013-05-20 17:25:00,69.3,51.9,29.72,SW,225,7.0,19.0,54,0.00,,,0.04,Weather View 32 v70,2013-05-20 22:25:00,
2013-05-20 17:30:00,69.4,52.5,29.72,SSW,202,6.0,19.0,55,0.00,,,0.04,Weather View 32 v70,2013-05-20 22:30:00,
2013-05-20 17:35:00,69.6,52.2,29.72,WSW,247,10.0,20.0,54,0.00,,,0.04,Weather View 32 v70,2013-05-20 22:35:00,
2013-05-20 17:40:00,69.7,51.8,29.71,SW,225,8.0,20.0,53,0.00,,,0.04,Weather View 32 v70,2013-05-20 22:40:00,
2013-05-20 17:45:00,69.6,53.2,29.72,SW,225,2.0,20.0,56,0.00,,,0.04,Weather View 32 v70,2013-05-20 22:45:00,
2013-05-20 17:50:00,69.5,52.6,29.71,SW,225,5.0,20.0,55,0.00,,,0.04,Weather View 32 v70,2013-05-20 22:50:00,
2013-05-20 17:55:00,69.4,52.5,29.71,SW,225,7.0,20.0,55,0.00,,,0.04,Weather View 32 v70,2013-05-20 22:55:00,
2013-05-20 18:00:00,69.3,52.9,29.71,SSE,157,4.0,20.0,56,0.00,,,0.04,Weather View 32 v70,2013-05-20 23:00:00,
2013-05-20 18:05:00,69.2,52.3,29.71,South,180,3.0,20.0,55,0.00,,,0.04,Weather View 32 v70,2013-05-20 23:05:00,
2013-05-20 18:10:00,69.3,51.9,29.70,SW,225,3.0,20.0,54,0.00,,,0.04,Weather View 32 v70,2013-05-20 23:10:00,
2013-05-20 18:15:00,69.5,51.6,29.70,South,180,4.0,20.0,53,0.00,,,0.04,Weather View 32 v70,2013-05-20 23:15:00,
2013-05-20 18:20:00,70.1,52.1,29.70,SSW,202,9.0,20.0,53,0.00,,,0.04,Weather View 32 v70,2013-05-20 23:20:00,
2013-05-20 18:25:00,70.3,53.8,29.70,SW,225,4.0,20.0,56,0.00,,,0.04,Weather View 32 v70,2013-05-20 23:25:00,
2013-05-20 18:30:00,70.2,52.7,29.70,SW,225,6.0,20.0,54,0.00,,,0.04,Weather View 32 v70,2013-05-20 23:30:00,
2013-05-20 18:35:00,69.9,53.4,29.70,WSW,247,6.0,20.0,56,0.00,,,0.04,Weather View 32 v70,2013-05-20 23:35:00,
2013-05-20 18:40:00,69.8,53.8,29.70,SW,225,4.0,13.0,57,0.00,,,0.04,Weather View 32 v70,2013-05-20 23:40:00,
2013-05-20 18:45:00,69.6,53.6,29.70,SW,225,4.0,13.0,57,0.00,,,0.04,Weather View 32 v70,2013-05-20 23:45:00,
2013-05-20 18:50:00,69.5,53.6,29.70,SSW,202,1.0,13.0,57,0.00,,,0.04,Weather View 32 v70,2013-05-20 23:50:00,
2013-05-20 18:55:00,69.3,54.3,29.70,SSW,202,2.0,13.0,59,0.00,,,0.04,Weather View 32 v70,2013-05-20 23:55:00,
2013-05-20 19:00:00,69.2,53.3,29.70,SSW,202,3.0,13.0,57,0.00,,,0.04,Weather View 32 v70,2013-05-21 00:00:00,
2013-05-20 19:05:00,69.1,53.7,29.70,SW,225,6.0,13.0,58,0.00,,,0.04,Weather View 32 v70,2013-05-21 00:05:00,
2013-05-20 19:10:00,69.0,54.5,29.70,SSW,202,1.0,13.0,60,0.00,,,0.04,Weather View 32 v70,2013-05-21 00:10:00,
2013-05-20 19:15:00,68.9,52.5,29.70,SW,225,9.0,13.0,56,0.00,,,0.04,Weather View 32 v70,2013-05-21 00:15:00,
2013-05-20 19:20:00,69.0,52.6,29.70,WSW,247,6.0,15.0,56,0.00,,,0.04,Weather View 32 v70,2013-05-21 00:20:00,
2013-05-20 19:25:00,68.9,52.0,29.70,SW,225,2.0,15.0,55,0.00,,,0.04,Weather View 32 v70,2013-05-21 00:25:00,
2013-05-20 19:30:00,68.7,51.8,29.70,South,180,2.0,15.0,55,0.00,,,0.04,Weather View 32 v70,2013-05-21 00:30:00,
2013-05-20 19:35:00,68.6,52.7,29.70,SSE,157,3.0,15.0,57,0.00,,,0.04,Weather View 32 v70,2013-05-21 00:35:00,
2013-05-20 19:40:00,68.4,52.0,29.70,SSW,202,6.0,15.0,56,0.00,,,0.04,Weather View 32 v70,2013-05-21 00:40:00,
2013-05-20 19:45:00,68.3,52.0,29.70,SSW,202,1.0,15.0,56,0.00,,,0.04,Weather View 32 v70,2013-05-21 00:45:00,
2013-05-20 19:50:00,68.1,52.7,29.70,SW,225,2.0,15.0,58,0.00,,,0.04,Weather View 32 v70,2013-05-21 00:50:00,
2013-05-20 19:55:00,67.9,51.6,29.70,WSW,247,5.0,15.0,56,0.00,,,0.04,Weather View 32 v70,2013-05-21 00:55:00,
2013-05-20 20:00:00,67.9,52.5,29.70,WSW,247,2.0,15.0,58,0.00,,,0.04,Weather View 32 v70,2013-05-21 01:00:00,
2013-05-20 20:05:00,67.7,52.3,29.70,WSW,247,2.0,15.0,58,0.00,,,0.04,Weather View 32 v70,2013-05-21 01:05:00,
2013-05-20 20:10:00,67.6,52.7,29.70,SW,225,2.0,15.0,59,0.00,,,0.04,Weather View 32 v70,2013-05-21 01:10:00,
2013-05-20 20:15:00,67.5,52.6,29.69,SSW,202,6.0,15.0,59,0.00,,,0.04,Weather View 32 v70,2013-05-21 01:15:00,
2013-05-20 20:20:00,67.3,52.9,29.69,SW,225,4.0,10.0,60,0.00,,,0.04,Weather View 32 v70,2013-05-21 01:20:00,
2013-05-20 20:25:00,67.1,53.2,29.69,SW,225,4.0,10.0,61,0.00,,,0.04,Weather View 32 v70,2013-05-21 01:25:00,
2013-05-20 20:30:00,66.9,53.0,29.70,SW,225,2.0,10.0,61,0.00,,,0.04,Weather View 32 v70,2013-05-21 01:30:00,
2013-05-20 20:35:00,66.8,53.3,29.70,SSW,202,2.0,10.0,62,0.00,,,0.04,Weather View 32 v70,2013-05-21 01:35:00,
2013-05-20 20:40:00,66.7,53.2,29.70,SW,225,2.0,9.0,62,0.00,,,0.04,Weather View 32 v70,2013-05-21 01:40:00,
2013-05-20 20:45:00,66.5,53.0,29.70,West,270,3.0,9.0,62,0.00,,,0.04,Weather View 32 v70,2013-05-21 01:45:00,
2013-05-20 20:50:00,66.4,53.4,29.70,West,270,4.0,9.0,63,0.00,,,0.04,Weather View 32 v70,2013-05-21 01:50:00,
2013-05-20 20:55:00,66.3,53.3,29.70,WSW,247,8.0,8.0,63,0.00,,,0.04,Weather View 32 v70,2013-05-21 01:55:00,
2013-05-20 21:00:00,66.1,53.5,29.70,West,270,6.0,12.0,64,0.00,,,0.04,Weather View 32 v70,2013-05-21 02:00:00,
2013-05-20 21:05:00,66.0,53.0,29.70,SSW,202,3.0,12.0,63,0.00,,,0.04,Weather View 32 v70,2013-05-21 02:05:00,
2013-05-20 21:10:00,65.9,53.3,29.70,West,270,6.0,12.0,64,0.00,,,0.04,Weather View 32 v70,2013-05-21 02:10:00,
2013-05-20 21:15:00,65.6,52.6,29.71,West,270,4.0,12.0,63,0.00,,,0.04,Weather View 32 v70,2013-05-21 02:15:00,
2013-05-20 21:20:00,65.4,53.3,29.71,West,270,10.0,13.0,65,0.00,,,0.04,Weather View 32 v70,2013-05-21 02:20:00,
2013-05-20 21:25:00,65.2,53.9,29.71,West,270,4.0,13.0,67,0.00,,,0.04,Weather View 32 v70,2013-05-21 02:25:00,
2013-05-20 21:30:00,64.9,54.1,29.71,West,270,7.0,13.0,68,0.32,,,0.04,Weather View 32 v70,2013-05-21 02:30:00,
2013-05-20 21:35:00,64.6,54.6,29.71,WSW,247,7.0,13.0,70,0.00,,,0.04,Weather View 32 v70,2013-05-21 02:35:00,
2013-05-20 21:40:00,64.1,54.9,29.71,SW,225,4.0,16.0,72,0.00,,,0.04,Weather View 32 v70,2013-05-21 02:40:00,
2013-05-20 21:45:00,63.7,54.9,29.71,West,270,6.0,16.0,73,0.00,,,0.04,Weather View 32 v70,2013-05-21 02:45:00,
2013-05-20 21:50:00,63.4,55.3,29.71,West,270,2.0,16.0,75,0.00,,,0.04,Weather View 32 v70,2013-05-21 02:50:00,
2013-05-20 21:55:00,63.2,55.1,29.72,WSW,247,9.0,16.0,75,0.00,,,0.04,Weather View 32 v70,2013-05-21 02:55:00,
2013-05-20 22:00:00,62.9,55.2,29.72,SW,225,4.0,16.0,76,0.00,,,0.04,Weather View 32 v70,2013-05-21 03:00:00,
2013-05-20 22:05:00,62.7,55.7,29.71,SW,225,3.0,16.0,78,0.00,,,0.04,Weather View 32 v70,2013-05-21 03:05:00,
2013-05-20 22:10:00,62.5,56.2,29.72,West,270,6.0,16.0,80,0.00,,,0.04,Weather View 32 v70,2013-05-21 03:10:00,
2013-05-20 22:15:00,62.3,56.4,29.72,West,270,6.0,16.0,81,0.00,,,0.04,Weather View 32 v70,2013-05-21 03:15:00,
2013-05-20 22:21:00,62.1,56.9,29.72,West,270,12.0,16.0,83,0.00,,,0.04,Weather View 32 v70,2013-05-21 03:21:00,
2013-05-20 22:26:00,61.6,56.7,29.72,West,270,12.0,16.0,84,0.00,,,0.04,Weather View 32 v70,2013-05-21 03:26:00,
2013-05-20 22:31:00,61.1,56.9,29.72,WSW,247,9.0,16.0,86,0.00,,,0.04,Weather View 32 v70,2013-05-21 03:31:00,
2013-05-20 22:36:00,60.8,57.2,29.72,WSW,247,2.0,16.0,88,0.00,,,0.04,Weather View 32 v70,2013-05-21 03:36:00,
2013-05-20 22:41:00,60.5,57.2,29.72,SW,225,4.0,15.0,89,0.00,,,0.04,Weather View 32 v70,2013-05-21 03:41:00,
2013-05-20 22:46:00,60.3,57.3,29.72,West,270,7.0,15.0,90,0.00,,,0.04,Weather View 32 v70,2013-05-21 03:46:00,
2013-05-20 22:51:00,60.2,57.2,29.72,West,270,7.0,15.0,90,0.00,,,0.04,Weather View 32 v70,2013-05-21 03:51:00,
2013-05-20 22:56:00,60.1,56.8,29.72,WNW,292,11.0,15.0,89,0.00,,,0.04,Weather View 32 v70,2013-05-21 03:56:00,
2013-05-20 23:01:00,60.0,56.4,29.72,West,270,7.0,15.0,88,0.00,,,0.04,Weather View 32 v70,2013-05-21 04:01:00,
2013-05-20 23:06:00,59.9,56.3,29.73,WSW,247,14.0,15.0,88,0.00,,,0.04,Weather View 32 v70,2013-05-21 04:06:00,
2013-05-20 23:11:00,59.9,56.6,29.73,West,270,6.0,17.0,89,0.00,,,0.04,Weather View 32 v70,2013-05-21 04:11:00,
2013-05-20 23:16:00,59.9,56.6,29.73,WNW,292,7.0,17.0,89,0.00,,,0.04,Weather View 32 v70,2013-05-21 04:16:00,
2013-05-20 23:21:00,59.7,56.4,29.73,West,270,4.0,17.0,89,0.00,,,0.04,Weather View 32 v70,2013-05-21 04:21:00,
2013-05-20 23:26:00,59.8,56.5,29.74,WSW,247,7.0,17.0,89,0.00,,,0.04,Weather View 32 v70,2013-05-21 04:26:00,
2013-05-20 23:31:00,59.7,56.1,29.74,West,270,3.0,17.0,88,0.00,,,0.04,Weather View 32 v70,2013-05-21 04:31:00,
2013-05-20 23:36:00,59.7,56.1,29.74,West,270,4.0,17.0,88,0.00,,,0.04,Weather View 32 v70,2013-05-21 04:36:00,
2013-05-20 23:41:00,59.7,56.1,29.74,WSW,247,4.0,17.0,88,0.00,,,0.04,Weather View 32 v70,2013-05-21 04:41:00,
2013-05-20 23:46:00,59.6,56.3,29.74,West,270,6.0,17.0,89,0.00,,,0.04,Weather View 32 v70,2013-05-21 04:46:00,
2013-05-20 23:51:00,59.5,56.2,29.74,West,270,3.0,17.0,89,0.00,,,0.04,Weather View 32 v70,2013-05-21 04:51:00,
2013-05-20 23:56:00,59.5,56.6,29.74,West,270,4.0,17.0,90,0.00,,,0.04,Weather View 32 v70,2013-05-21 04:56:00,